sensor_id;sensor_type;location;lat;lon;timestamp;P1;durP1;ratioP1;P2;durP2;ratioP2
37593;SDS011;23441;50.856;6.076;2023-06-05T00:01:55;5.70;;;2.97;;
37593;SDS011;23441;50.856;6.076;2023-06-05T00:04:20;6.32;;;2.78;;
37593;SDS011;23441;50.856;6.076;2023-06-05T00:06:48;5.20;;;2.50;;
37593;SDS011;23441;50.856;6.076;2023-06-05T00:09:15;5.88;;;3.20;;
37593;SDS011;23441;50.856;6.076;2023-06-05T00:11:41;5.63;;;2.97;;
37593;SDS011;23441;50.856;6.076;2023-06-05T00:14:07;9.18;;;2.78;;
37593;SDS011;23441;50.856;6.076;2023-06-05T00:16:34;6.22;;;3.17;;
37593;SDS011;23441;50.856;6.076;2023-06-05T00:19:00;3.80;;;2.92;;
37593;SDS011;23441;50.856;6.076;2023-06-05T00:21:26;4.50;;;3.05;;
37593;SDS011;23441;50.856;6.076;2023-06-05T00:23:51;9.90;;;4.10;;
37593;SDS011;23441;50.856;6.076;2023-06-05T00:26:17;4.15;;;2.95;;
37593;SDS011;23441;50.856;6.076;2023-06-05T00:28:43;6.07;;;3.00;;
37593;SDS011;23441;50.856;6.076;2023-06-05T00:31:08;6.15;;;3.08;;
37593;SDS011;23441;50.856;6.076;2023-06-05T00:33:34;10.82;;;3.35;;
37593;SDS011;23441;50.856;6.076;2023-06-05T00:36:00;5.35;;;3.15;;
37593;SDS011;23441;50.856;6.076;2023-06-05T00:38:25;5.72;;;3.03;;
37593;SDS011;23441;50.856;6.076;2023-06-05T00:40:51;6.43;;;3.80;;
37593;SDS011;23441;50.856;6.076;2023-06-05T00:43:17;4.25;;;2.95;;
37593;SDS011;23441;50.856;6.076;2023-06-05T00:45:42;7.07;;;2.95;;
37593;SDS011;23441;50.856;6.076;2023-06-05T00:48:08;5.60;;;3.33;;
37593;SDS011;23441;50.856;6.076;2023-06-05T00:50:35;4.55;;;3.17;;
37593;SDS011;23441;50.856;6.076;2023-06-05T00:53:01;5.28;;;3.28;;
37593;SDS011;23441;50.856;6.076;2023-06-05T00:55:28;7.85;;;3.72;;
37593;SDS011;23441;50.856;6.076;2023-06-05T00:57:55;5.68;;;3.40;;
37593;SDS011;23441;50.856;6.076;2023-06-05T01:00:21;10.25;;;4.53;;
37593;SDS011;23441;50.856;6.076;2023-06-05T01:02:47;8.70;;;3.47;;
37593;SDS011;23441;50.856;6.076;2023-06-05T01:05:13;7.38;;;3.30;;
37593;SDS011;23441;50.856;6.076;2023-06-05T01:07:39;5.45;;;3.45;;
37593;SDS011;23441;50.856;6.076;2023-06-05T01:10:05;6.55;;;3.30;;
37593;SDS011;23441;50.856;6.076;2023-06-05T01:12:36;7.07;;;3.13;;
37593;SDS011;23441;50.856;6.076;2023-06-05T01:15:11;8.50;;;3.85;;
37593;SDS011;23441;50.856;6.076;2023-06-05T01:17:37;10.18;;;3.33;;
37593;SDS011;23441;50.856;6.076;2023-06-05T01:20:05;5.75;;;3.90;;
37593;SDS011;23441;50.856;6.076;2023-06-05T01:22:33;7.53;;;3.35;;
37593;SDS011;23441;50.856;6.076;2023-06-05T01:25:00;9.90;;;3.60;;
37593;SDS011;23441;50.856;6.076;2023-06-05T01:32:40;7.05;;;3.72;;
37593;SDS011;23441;50.856;6.076;2023-06-05T01:35:12;8.00;;;3.60;;
37593;SDS011;23441;50.856;6.076;2023-06-05T01:37:42;6.20;;;4.07;;
37593;SDS011;23441;50.856;6.076;2023-06-05T01:40:14;7.65;;;3.67;;
37593;SDS011;23441;50.856;6.076;2023-06-05T01:42:46;10.00;;;3.92;;
37593;SDS011;23441;50.856;6.076;2023-06-05T01:45:13;6.75;;;3.95;;
37593;SDS011;23441;50.856;6.076;2023-06-05T01:47:41;7.05;;;3.88;;
37593;SDS011;23441;50.856;6.076;2023-06-05T01:50:07;8.02;;;3.83;;
37593;SDS011;23441;50.856;6.076;2023-06-05T01:52:34;9.85;;;3.90;;
37593;SDS011;23441;50.856;6.076;2023-06-05T01:55:01;10.52;;;3.92;;
37593;SDS011;23441;50.856;6.076;2023-06-05T01:57:27;4.95;;;3.63;;
37593;SDS011;23441;50.856;6.076;2023-06-05T01:59:54;9.93;;;3.70;;
37593;SDS011;23441;50.856;6.076;2023-06-05T02:02:23;5.35;;;4.03;;
37593;SDS011;23441;50.856;6.076;2023-06-05T02:04:48;7.55;;;4.53;;
37593;SDS011;23441;50.856;6.076;2023-06-05T02:07:14;7.43;;;3.72;;
37593;SDS011;23441;50.856;6.076;2023-06-05T02:09:40;7.70;;;4.30;;
37593;SDS011;23441;50.856;6.076;2023-06-05T02:12:06;9.65;;;4.50;;
37593;SDS011;23441;50.856;6.076;2023-06-05T02:14:32;8.20;;;4.20;;
37593;SDS011;23441;50.856;6.076;2023-06-05T02:17:00;10.13;;;4.40;;
37593;SDS011;23441;50.856;6.076;2023-06-05T02:19:32;6.68;;;4.20;;
37593;SDS011;23441;50.856;6.076;2023-06-05T02:21:58;7.32;;;4.45;;
37593;SDS011;23441;50.856;6.076;2023-06-05T02:24:24;8.52;;;3.95;;
37593;SDS011;23441;50.856;6.076;2023-06-05T02:26:51;11.48;;;4.05;;
37593;SDS011;23441;50.856;6.076;2023-06-05T02:29:17;8.07;;;4.32;;
37593;SDS011;23441;50.856;6.076;2023-06-05T02:31:43;9.98;;;4.53;;
37593;SDS011;23441;50.856;6.076;2023-06-05T02:34:09;7.55;;;3.60;;
37593;SDS011;23441;50.856;6.076;2023-06-05T02:36:34;7.53;;;4.13;;
37593;SDS011;23441;50.856;6.076;2023-06-05T02:39:00;7.10;;;4.07;;
37593;SDS011;23441;50.856;6.076;2023-06-05T02:41:29;7.22;;;4.40;;
37593;SDS011;23441;50.856;6.076;2023-06-05T02:43:55;10.23;;;4.70;;
37593;SDS011;23441;50.856;6.076;2023-06-05T02:46:21;10.85;;;4.18;;
37593;SDS011;23441;50.856;6.076;2023-06-05T02:48:49;8.80;;;4.55;;
37593;SDS011;23441;50.856;6.076;2023-06-05T02:51:15;6.13;;;3.78;;
37593;SDS011;23441;50.856;6.076;2023-06-05T02:53:41;8.60;;;4.72;;
37593;SDS011;23441;50.856;6.076;2023-06-05T02:56:07;7.38;;;4.18;;
37593;SDS011;23441;50.856;6.076;2023-06-05T02:58:32;10.77;;;4.97;;
37593;SDS011;23441;50.856;6.076;2023-06-05T03:00:59;10.60;;;4.07;;
37593;SDS011;23441;50.856;6.076;2023-06-05T03:03:31;7.43;;;3.92;;
37593;SDS011;23441;50.856;6.076;2023-06-05T03:05:57;7.78;;;4.55;;
37593;SDS011;23441;50.856;6.076;2023-06-05T03:08:36;7.75;;;4.32;;
37593;SDS011;23441;50.856;6.076;2023-06-05T03:11:02;11.70;;;4.72;;
37593;SDS011;23441;50.856;6.076;2023-06-05T03:13:29;5.78;;;4.63;;
37593;SDS011;23441;50.856;6.076;2023-06-05T03:15:55;8.90;;;4.72;;
37593;SDS011;23441;50.856;6.076;2023-06-05T03:18:26;7.35;;;4.30;;
37593;SDS011;23441;50.856;6.076;2023-06-05T03:20:55;7.95;;;4.22;;
37593;SDS011;23441;50.856;6.076;2023-06-05T03:23:21;8.55;;;5.18;;
37593;SDS011;23441;50.856;6.076;2023-06-05T03:25:48;8.32;;;4.38;;
37593;SDS011;23441;50.856;6.076;2023-06-05T03:28:15;9.85;;;4.90;;
37593;SDS011;23441;50.856;6.076;2023-06-05T03:30:40;10.82;;;5.47;;
37593;SDS011;23441;50.856;6.076;2023-06-05T03:33:06;7.72;;;4.72;;
37593;SDS011;23441;50.856;6.076;2023-06-05T03:35:32;11.77;;;5.30;;
37593;SDS011;23441;50.856;6.076;2023-06-05T03:37:58;9.15;;;5.35;;
37593;SDS011;23441;50.856;6.076;2023-06-05T03:40:24;8.57;;;5.13;;
37593;SDS011;23441;50.856;6.076;2023-06-05T03:42:50;12.20;;;5.88;;
37593;SDS011;23441;50.856;6.076;2023-06-05T03:45:16;10.98;;;5.25;;
37593;SDS011;23441;50.856;6.076;2023-06-05T03:47:41;10.70;;;4.68;;
37593;SDS011;23441;50.856;6.076;2023-06-05T03:50:10;6.32;;;4.25;;
37593;SDS011;23441;50.856;6.076;2023-06-05T03:52:37;10.73;;;6.15;;
37593;SDS011;23441;50.856;6.076;2023-06-05T03:55:05;11.10;;;5.78;;
37593;SDS011;23441;50.856;6.076;2023-06-05T03:57:32;10.65;;;6.00;;
37593;SDS011;23441;50.856;6.076;2023-06-05T03:59:58;18.23;;;5.85;;
37593;SDS011;23441;50.856;6.076;2023-06-05T04:02:25;11.20;;;6.13;;
37593;SDS011;23441;50.856;6.076;2023-06-05T04:04:50;8.80;;;5.35;;
37593;SDS011;23441;50.856;6.076;2023-06-05T04:07:16;10.50;;;5.10;;
37593;SDS011;23441;50.856;6.076;2023-06-05T04:09:42;9.30;;;6.05;;
37593;SDS011;23441;50.856;6.076;2023-06-05T04:12:08;10.57;;;5.55;;
37593;SDS011;23441;50.856;6.076;2023-06-05T04:14:38;10.88;;;5.40;;
37593;SDS011;23441;50.856;6.076;2023-06-05T04:17:04;13.18;;;5.90;;
37593;SDS011;23441;50.856;6.076;2023-06-05T04:19:30;13.00;;;5.65;;
37593;SDS011;23441;50.856;6.076;2023-06-05T04:21:56;9.45;;;5.53;;
37593;SDS011;23441;50.856;6.076;2023-06-05T04:24:21;11.40;;;5.80;;
37593;SDS011;23441;50.856;6.076;2023-06-05T04:26:47;8.65;;;5.20;;
37593;SDS011;23441;50.856;6.076;2023-06-05T04:29:13;8.30;;;5.65;;
37593;SDS011;23441;50.856;6.076;2023-06-05T04:31:43;9.68;;;5.10;;
37593;SDS011;23441;50.856;6.076;2023-06-05T04:34:10;14.80;;;5.50;;
37593;SDS011;23441;50.856;6.076;2023-06-05T04:36:36;12.48;;;5.68;;
37593;SDS011;23441;50.856;6.076;2023-06-05T04:39:02;8.23;;;5.28;;
37593;SDS011;23441;50.856;6.076;2023-06-05T04:41:32;11.05;;;5.68;;
37593;SDS011;23441;50.856;6.076;2023-06-05T04:43:59;9.73;;;5.90;;
37593;SDS011;23441;50.856;6.076;2023-06-05T04:46:25;12.57;;;5.90;;
37593;SDS011;23441;50.856;6.076;2023-06-05T04:48:52;11.73;;;5.78;;
37593;SDS011;23441;50.856;6.076;2023-06-05T04:51:23;10.23;;;6.15;;
37593;SDS011;23441;50.856;6.076;2023-06-05T04:53:49;8.65;;;5.55;;
37593;SDS011;23441;50.856;6.076;2023-06-05T04:56:17;12.23;;;5.45;;
37593;SDS011;23441;50.856;6.076;2023-06-05T04:58:45;12.65;;;5.97;;
37593;SDS011;23441;50.856;6.076;2023-06-05T05:01:12;9.65;;;5.13;;
37593;SDS011;23441;50.856;6.076;2023-06-05T05:03:38;8.88;;;5.65;;
37593;SDS011;23441;50.856;6.076;2023-06-05T05:06:07;9.93;;;5.50;;
37593;SDS011;23441;50.856;6.076;2023-06-05T05:08:34;11.32;;;5.60;;
37593;SDS011;23441;50.856;6.076;2023-06-05T05:11:01;8.88;;;5.20;;
37593;SDS011;23441;50.856;6.076;2023-06-05T05:13:27;12.25;;;5.65;;
37593;SDS011;23441;50.856;6.076;2023-06-05T05:15:53;8.63;;;6.13;;
37593;SDS011;23441;50.856;6.076;2023-06-05T05:18:19;13.02;;;5.95;;
37593;SDS011;23441;50.856;6.076;2023-06-05T05:20:45;10.18;;;5.70;;
37593;SDS011;23441;50.856;6.076;2023-06-05T05:23:11;11.40;;;5.50;;
37593;SDS011;23441;50.856;6.076;2023-06-05T05:25:37;7.57;;;5.03;;
37593;SDS011;23441;50.856;6.076;2023-06-05T05:28:03;8.32;;;4.90;;
37593;SDS011;23441;50.856;6.076;2023-06-05T05:30:29;10.85;;;4.68;;
37593;SDS011;23441;50.856;6.076;2023-06-05T05:32:55;9.90;;;5.32;;
37593;SDS011;23441;50.856;6.076;2023-06-05T05:35:22;9.65;;;4.90;;
37593;SDS011;23441;50.856;6.076;2023-06-05T05:37:47;9.55;;;5.07;;
37593;SDS011;23441;50.856;6.076;2023-06-05T05:40:13;12.00;;;5.60;;
37593;SDS011;23441;50.856;6.076;2023-06-05T05:42:39;7.78;;;4.68;;
37593;SDS011;23441;50.856;6.076;2023-06-05T05:45:04;11.05;;;5.15;;
37593;SDS011;23441;50.856;6.076;2023-06-05T05:47:31;11.88;;;5.53;;
37593;SDS011;23441;50.856;6.076;2023-06-05T05:49:57;13.15;;;5.65;;
37593;SDS011;23441;50.856;6.076;2023-06-05T05:52:22;8.10;;;4.88;;
37593;SDS011;23441;50.856;6.076;2023-06-05T05:54:48;8.20;;;5.28;;
37593;SDS011;23441;50.856;6.076;2023-06-05T05:57:14;9.68;;;4.93;;
37593;SDS011;23441;50.856;6.076;2023-06-05T05:59:40;8.02;;;4.82;;
37593;SDS011;23441;50.856;6.076;2023-06-05T06:02:10;8.27;;;5.07;;
37593;SDS011;23441;50.856;6.076;2023-06-05T06:04:36;8.15;;;4.90;;
37593;SDS011;23441;50.856;6.076;2023-06-05T06:07:03;10.10;;;4.68;;
37593;SDS011;23441;50.856;6.076;2023-06-05T06:09:30;10.63;;;4.72;;
37593;SDS011;23441;50.856;6.076;2023-06-05T06:11:56;10.13;;;5.03;;
37593;SDS011;23441;50.856;6.076;2023-06-05T06:14:22;9.93;;;4.30;;
37593;SDS011;23441;50.856;6.076;2023-06-05T06:16:48;8.55;;;4.72;;
37593;SDS011;23441;50.856;6.076;2023-06-05T06:19:16;8.20;;;4.55;;
37593;SDS011;23441;50.856;6.076;2023-06-05T06:21:42;9.15;;;5.22;;
37593;SDS011;23441;50.856;6.076;2023-06-05T06:24:08;6.10;;;4.53;;
37593;SDS011;23441;50.856;6.076;2023-06-05T06:26:34;7.65;;;4.50;;
37593;SDS011;23441;50.856;6.076;2023-06-05T06:29:03;7.88;;;4.20;;
37593;SDS011;23441;50.856;6.076;2023-06-05T06:31:28;11.73;;;4.95;;
37593;SDS011;23441;50.856;6.076;2023-06-05T06:33:54;6.50;;;4.50;;
37593;SDS011;23441;50.856;6.076;2023-06-05T06:36:20;8.40;;;4.20;;
37593;SDS011;23441;50.856;6.076;2023-06-05T06:38:46;7.70;;;4.72;;
37593;SDS011;23441;50.856;6.076;2023-06-05T06:41:11;5.75;;;4.35;;
37593;SDS011;23441;50.856;6.076;2023-06-05T06:43:37;9.88;;;4.65;;
37593;SDS011;23441;50.856;6.076;2023-06-05T06:46:03;13.25;;;4.55;;
37593;SDS011;23441;50.856;6.076;2023-06-05T06:48:29;8.40;;;4.22;;
37593;SDS011;23441;50.856;6.076;2023-06-05T06:50:55;12.50;;;4.38;;
37593;SDS011;23441;50.856;6.076;2023-06-05T06:53:21;7.35;;;4.15;;
37593;SDS011;23441;50.856;6.076;2023-06-05T06:55:46;6.97;;;4.38;;
37593;SDS011;23441;50.856;6.076;2023-06-05T06:58:12;6.72;;;3.78;;
37593;SDS011;23441;50.856;6.076;2023-06-05T07:00:37;9.73;;;4.55;;
37593;SDS011;23441;50.856;6.076;2023-06-05T07:03:03;13.23;;;4.50;;
37593;SDS011;23441;50.856;6.076;2023-06-05T07:05:29;6.05;;;3.90;;
37593;SDS011;23441;50.856;6.076;2023-06-05T07:07:56;8.48;;;4.35;;
37593;SDS011;23441;50.856;6.076;2023-06-05T07:10:25;8.05;;;3.90;;
37593;SDS011;23441;50.856;6.076;2023-06-05T07:12:52;9.70;;;4.82;;
37593;SDS011;23441;50.856;6.076;2023-06-05T07:15:18;8.90;;;4.60;;
37593;SDS011;23441;50.856;6.076;2023-06-05T07:17:43;8.77;;;4.05;;
37593;SDS011;23441;50.856;6.076;2023-06-05T07:20:09;8.18;;;4.38;;
37593;SDS011;23441;50.856;6.076;2023-06-05T07:22:36;8.40;;;4.25;;
37593;SDS011;23441;50.856;6.076;2023-06-05T07:25:01;11.98;;;4.20;;
37593;SDS011;23441;50.856;6.076;2023-06-05T07:27:28;7.88;;;3.80;;
37593;SDS011;23441;50.856;6.076;2023-06-05T07:29:54;12.43;;;4.03;;
37593;SDS011;23441;50.856;6.076;2023-06-05T07:32:19;8.23;;;4.22;;
37593;SDS011;23441;50.856;6.076;2023-06-05T07:34:46;7.45;;;4.13;;
37593;SDS011;23441;50.856;6.076;2023-06-05T07:37:11;9.70;;;3.80;;
37593;SDS011;23441;50.856;6.076;2023-06-05T07:39:37;6.20;;;4.20;;
37593;SDS011;23441;50.856;6.076;2023-06-05T07:42:03;7.75;;;3.92;;
37593;SDS011;23441;50.856;6.076;2023-06-05T07:44:30;7.00;;;4.20;;
37593;SDS011;23441;50.856;6.076;2023-06-05T07:46:55;11.60;;;4.20;;
37593;SDS011;23441;50.856;6.076;2023-06-05T07:49:23;8.27;;;4.07;;
37593;SDS011;23441;50.856;6.076;2023-06-05T07:51:49;12.20;;;4.85;;
37593;SDS011;23441;50.856;6.076;2023-06-05T07:54:16;6.55;;;3.80;;
37593;SDS011;23441;50.856;6.076;2023-06-05T07:56:42;9.40;;;4.85;;
37593;SDS011;23441;50.856;6.076;2023-06-05T07:59:08;12.05;;;4.57;;
37593;SDS011;23441;50.856;6.076;2023-06-05T08:01:34;7.85;;;4.30;;
37593;SDS011;23441;50.856;6.076;2023-06-05T08:04:04;10.43;;;4.75;;
37593;SDS011;23441;50.856;6.076;2023-06-05T08:06:31;7.60;;;4.25;;
37593;SDS011;23441;50.856;6.076;2023-06-05T08:09:00;5.68;;;3.90;;
37593;SDS011;23441;50.856;6.076;2023-06-05T08:11:26;6.80;;;3.83;;
37593;SDS011;23441;50.856;6.076;2023-06-05T08:13:54;7.28;;;4.18;;
37593;SDS011;23441;50.856;6.076;2023-06-05T08:16:20;5.97;;;3.60;;
37593;SDS011;23441;50.856;6.076;2023-06-05T08:18:46;10.85;;;3.70;;
37593;SDS011;23441;50.856;6.076;2023-06-05T08:21:12;9.35;;;3.85;;
37593;SDS011;23441;50.856;6.076;2023-06-05T08:23:38;8.35;;;3.72;;
37593;SDS011;23441;50.856;6.076;2023-06-05T08:26:04;11.38;;;3.92;;
37593;SDS011;23441;50.856;6.076;2023-06-05T08:28:37;7.13;;;3.97;;
37593;SDS011;23441;50.856;6.076;2023-06-05T08:31:04;9.13;;;3.90;;
37593;SDS011;23441;50.856;6.076;2023-06-05T08:33:31;6.40;;;3.70;;
37593;SDS011;23441;50.856;6.076;2023-06-05T08:35:58;6.05;;;4.00;;
37593;SDS011;23441;50.856;6.076;2023-06-05T08:38:23;12.57;;;4.60;;
37593;SDS011;23441;50.856;6.076;2023-06-05T08:40:51;9.43;;;4.10;;
37593;SDS011;23441;50.856;6.076;2023-06-05T08:43:23;8.13;;;3.88;;
37593;SDS011;23441;50.856;6.076;2023-06-05T08:45:52;7.90;;;4.32;;
37593;SDS011;23441;50.856;6.076;2023-06-05T08:48:20;10.82;;;4.28;;
37593;SDS011;23441;50.856;6.076;2023-06-05T08:50:46;9.23;;;4.00;;
37593;SDS011;23441;50.856;6.076;2023-06-05T08:53:13;10.65;;;4.50;;
37593;SDS011;23441;50.856;6.076;2023-06-05T08:55:46;7.75;;;4.35;;
37593;SDS011;23441;50.856;6.076;2023-06-05T08:58:13;6.18;;;4.03;;
37593;SDS011;23441;50.856;6.076;2023-06-05T09:00:39;11.32;;;4.32;;
37593;SDS011;23441;50.856;6.076;2023-06-05T09:03:05;12.07;;;4.53;;
37593;SDS011;23441;50.856;6.076;2023-06-05T09:05:31;12.18;;;4.28;;
37593;SDS011;23441;50.856;6.076;2023-06-05T09:07:58;11.18;;;3.80;;
37593;SDS011;23441;50.856;6.076;2023-06-05T09:10:24;9.05;;;3.80;;
37593;SDS011;23441;50.856;6.076;2023-06-05T09:15:23;11.63;;;4.10;;
37593;SDS011;23441;50.856;6.076;2023-06-05T09:18:01;9.82;;;3.88;;
37593;SDS011;23441;50.856;6.076;2023-06-05T09:20:33;11.80;;;4.15;;
37593;SDS011;23441;50.856;6.076;2023-06-05T09:23:00;9.00;;;4.10;;
37593;SDS011;23441;50.856;6.076;2023-06-05T09:25:36;6.28;;;3.53;;
37593;SDS011;23441;50.856;6.076;2023-06-05T09:28:10;8.82;;;3.35;;
37593;SDS011;23441;50.856;6.076;2023-06-05T09:33:23;7.25;;;3.03;;
37593;SDS011;23441;50.856;6.076;2023-06-05T09:38:38;9.63;;;3.38;;
37593;SDS011;23441;50.856;6.076;2023-06-05T09:41:06;9.05;;;3.80;;
37593;SDS011;23441;50.856;6.076;2023-06-05T09:43:33;6.85;;;3.35;;
37593;SDS011;23441;50.856;6.076;2023-06-05T09:46:05;9.07;;;4.07;;
37593;SDS011;23441;50.856;6.076;2023-06-05T09:48:41;7.13;;;3.38;;
37593;SDS011;23441;50.856;6.076;2023-06-05T09:53:42;4.55;;;3.28;;
37593;SDS011;23441;50.856;6.076;2023-06-05T09:56:11;6.13;;;2.95;;
37593;SDS011;23441;50.856;6.076;2023-06-05T09:58:50;6.80;;;3.35;;
37593;SDS011;23441;50.856;6.076;2023-06-05T10:03:44;13.75;;;4.13;;
37593;SDS011;23441;50.856;6.076;2023-06-05T10:06:13;5.47;;;3.63;;
37593;SDS011;23441;50.856;6.076;2023-06-05T10:08:39;6.28;;;3.55;;
37593;SDS011;23441;50.856;6.076;2023-06-05T10:11:05;7.30;;;3.13;;
37593;SDS011;23441;50.856;6.076;2023-06-05T10:13:35;6.82;;;3.72;;
37593;SDS011;23441;50.856;6.076;2023-06-05T10:16:01;6.35;;;3.20;;
37593;SDS011;23441;50.856;6.076;2023-06-05T10:18:27;5.22;;;3.33;;
37593;SDS011;23441;50.856;6.076;2023-06-05T10:20:53;5.85;;;3.38;;
37593;SDS011;23441;50.856;6.076;2023-06-05T10:23:22;6.30;;;2.97;;
37593;SDS011;23441;50.856;6.076;2023-06-05T10:25:49;7.95;;;2.95;;
37593;SDS011;23441;50.856;6.076;2023-06-05T10:28:29;3.72;;;2.60;;
37593;SDS011;23441;50.856;6.076;2023-06-05T10:33:48;5.97;;;3.28;;
37593;SDS011;23441;50.856;6.076;2023-06-05T10:39:09;4.30;;;2.42;;
37593;SDS011;23441;50.856;6.076;2023-06-05T10:41:37;6.25;;;2.45;;
37593;SDS011;23441;50.856;6.076;2023-06-05T10:44:03;6.90;;;2.80;;
37593;SDS011;23441;50.856;6.076;2023-06-05T10:56:53;4.85;;;2.30;;
37593;SDS011;23441;50.856;6.076;2023-06-05T10:59:24;4.75;;;2.13;;
37593;SDS011;23441;50.856;6.076;2023-06-05T11:07:27;5.68;;;2.75;;
37593;SDS011;23441;50.856;6.076;2023-06-05T11:15:06;5.63;;;2.58;;
37593;SDS011;23441;50.856;6.076;2023-06-05T11:17:33;5.20;;;2.30;;
37593;SDS011;23441;50.856;6.076;2023-06-05T11:20:03;4.53;;;2.22;;
37593;SDS011;23441;50.856;6.076;2023-06-05T11:22:32;4.88;;;2.63;;
37593;SDS011;23441;50.856;6.076;2023-06-05T11:25:31;3.50;;;2.28;;
37593;SDS011;23441;50.856;6.076;2023-06-05T11:27:58;6.95;;;2.47;;
37593;SDS011;23441;50.856;6.076;2023-06-05T11:30:33;5.05;;;2.50;;
37593;SDS011;23441;50.856;6.076;2023-06-05T11:33:11;3.20;;;1.95;;
37593;SDS011;23441;50.856;6.076;2023-06-05T11:35:38;5.05;;;1.88;;
37593;SDS011;23441;50.856;6.076;2023-06-05T11:40:40;5.05;;;2.35;;
37593;SDS011;23441;50.856;6.076;2023-06-05T11:43:08;6.65;;;2.08;;
37593;SDS011;23441;50.856;6.076;2023-06-05T11:45:35;5.15;;;2.55;;
37593;SDS011;23441;50.856;6.076;2023-06-05T11:48:09;7.45;;;1.80;;
37593;SDS011;23441;50.856;6.076;2023-06-05T11:50:37;5.65;;;2.00;;
37593;SDS011;23441;50.856;6.076;2023-06-05T11:53:07;4.35;;;2.30;;
37593;SDS011;23441;50.856;6.076;2023-06-05T11:55:34;7.65;;;2.50;;
37593;SDS011;23441;50.856;6.076;2023-06-05T11:58:29;4.30;;;2.60;;
37593;SDS011;23441;50.856;6.076;2023-06-05T12:01:05;6.03;;;1.92;;
37593;SDS011;23441;50.856;6.076;2023-06-05T12:03:47;4.95;;;2.80;;
37593;SDS011;23441;50.856;6.076;2023-06-05T12:06:14;8.65;;;2.65;;
37593;SDS011;23441;50.856;6.076;2023-06-05T12:08:44;8.07;;;2.40;;
37593;SDS011;23441;50.856;6.076;2023-06-05T12:11:19;3.38;;;2.70;;
37593;SDS011;23441;50.856;6.076;2023-06-05T12:13:54;5.10;;;2.53;;
37593;SDS011;23441;50.856;6.076;2023-06-05T12:16:28;5.78;;;2.67;;
37593;SDS011;23441;50.856;6.076;2023-06-05T12:18:57;7.05;;;2.50;;
37593;SDS011;23441;50.856;6.076;2023-06-05T12:21:23;5.05;;;2.28;;
37593;SDS011;23441;50.856;6.076;2023-06-05T12:23:50;4.85;;;2.45;;
37593;SDS011;23441;50.856;6.076;2023-06-05T12:26:16;6.55;;;2.45;;
37593;SDS011;23441;50.856;6.076;2023-06-05T12:28:42;7.93;;;2.97;;
37593;SDS011;23441;50.856;6.076;2023-06-05T12:31:09;4.85;;;2.80;;
37593;SDS011;23441;50.856;6.076;2023-06-05T12:33:48;6.82;;;2.80;;
37593;SDS011;23441;50.856;6.076;2023-06-05T12:36:14;5.13;;;2.42;;
37593;SDS011;23441;50.856;6.076;2023-06-05T12:38:41;4.85;;;2.20;;
37593;SDS011;23441;50.856;6.076;2023-06-05T12:41:08;4.82;;;2.97;;
37593;SDS011;23441;50.856;6.076;2023-06-05T12:43:34;6.15;;;3.00;;
37593;SDS011;23441;50.856;6.076;2023-06-05T12:46:00;4.93;;;2.90;;
37593;SDS011;23441;50.856;6.076;2023-06-05T12:48:26;8.23;;;2.85;;
37593;SDS011;23441;50.856;6.076;2023-06-05T12:50:52;9.23;;;3.20;;
37593;SDS011;23441;50.856;6.076;2023-06-05T12:53:19;6.50;;;3.38;;
37593;SDS011;23441;50.856;6.076;2023-06-05T12:55:46;9.95;;;3.03;;
37593;SDS011;23441;50.856;6.076;2023-06-05T12:58:12;5.30;;;2.97;;
37593;SDS011;23441;50.856;6.076;2023-06-05T13:00:38;5.68;;;2.58;;
37593;SDS011;23441;50.856;6.076;2023-06-05T13:03:03;9.52;;;3.10;;
37593;SDS011;23441;50.856;6.076;2023-06-05T13:05:29;6.28;;;3.00;;
37593;SDS011;23441;50.856;6.076;2023-06-05T13:07:58;9.70;;;2.95;;
37593;SDS011;23441;50.856;6.076;2023-06-05T13:10:24;4.45;;;3.22;;
37593;SDS011;23441;50.856;6.076;2023-06-05T13:12:50;6.50;;;2.80;;
37593;SDS011;23441;50.856;6.076;2023-06-05T13:15:16;7.38;;;3.70;;
37593;SDS011;23441;50.856;6.076;2023-06-05T13:17:42;7.57;;;2.70;;
37593;SDS011;23441;50.856;6.076;2023-06-05T13:20:08;6.57;;;3.20;;
37593;SDS011;23441;50.856;6.076;2023-06-05T13:22:38;9.25;;;3.20;;
37593;SDS011;23441;50.856;6.076;2023-06-05T13:25:07;6.93;;;3.10;;
37593;SDS011;23441;50.856;6.076;2023-06-05T13:27:33;7.63;;;2.83;;
37593;SDS011;23441;50.856;6.076;2023-06-05T13:29:59;9.60;;;3.50;;
37593;SDS011;23441;50.856;6.076;2023-06-05T13:32:25;6.68;;;3.17;;
37593;SDS011;23441;50.856;6.076;2023-06-05T13:34:51;9.13;;;3.70;;
37593;SDS011;23441;50.856;6.076;2023-06-05T13:37:18;4.80;;;3.00;;
37593;SDS011;23441;50.856;6.076;2023-06-05T13:39:45;7.70;;;2.90;;
37593;SDS011;23441;50.856;6.076;2023-06-05T13:42:11;6.03;;;2.80;;
37593;SDS011;23441;50.856;6.076;2023-06-05T13:44:37;4.53;;;3.10;;
37593;SDS011;23441;50.856;6.076;2023-06-05T13:47:03;7.25;;;2.90;;
37593;SDS011;23441;50.856;6.076;2023-06-05T13:49:29;7.93;;;3.00;;
37593;SDS011;23441;50.856;6.076;2023-06-05T13:51:56;6.63;;;3.45;;
37593;SDS011;23441;50.856;6.076;2023-06-05T13:54:21;10.00;;;3.40;;
37593;SDS011;23441;50.856;6.076;2023-06-05T13:56:47;9.00;;;2.95;;
37593;SDS011;23441;50.856;6.076;2023-06-05T13:59:13;5.60;;;3.47;;
37593;SDS011;23441;50.856;6.076;2023-06-05T14:01:39;9.63;;;3.50;;
37593;SDS011;23441;50.856;6.076;2023-06-05T14:04:04;7.20;;;3.55;;
37593;SDS011;23441;50.856;6.076;2023-06-05T14:06:30;9.55;;;3.60;;
37593;SDS011;23441;50.856;6.076;2023-06-05T14:08:56;7.97;;;3.45;;
37593;SDS011;23441;50.856;6.076;2023-06-05T14:11:21;9.77;;;3.75;;
37593;SDS011;23441;50.856;6.076;2023-06-05T14:13:47;9.70;;;3.05;;
37593;SDS011;23441;50.856;6.076;2023-06-05T14:16:13;8.93;;;4.18;;
37593;SDS011;23441;50.856;6.076;2023-06-05T14:18:38;8.00;;;3.45;;
37593;SDS011;23441;50.856;6.076;2023-06-05T14:21:04;6.78;;;3.00;;
37593;SDS011;23441;50.856;6.076;2023-06-05T14:23:30;5.38;;;3.25;;
37593;SDS011;23441;50.856;6.076;2023-06-05T14:25:55;6.28;;;2.95;;
37593;SDS011;23441;50.856;6.076;2023-06-05T14:28:21;9.55;;;3.40;;
37593;SDS011;23441;50.856;6.076;2023-06-05T14:30:47;7.22;;;2.88;;
37593;SDS011;23441;50.856;6.076;2023-06-05T14:33:13;8.98;;;3.13;;
37593;SDS011;23441;50.856;6.076;2023-06-05T14:35:41;7.15;;;3.65;;
37593;SDS011;23441;50.856;6.076;2023-06-05T14:38:07;11.27;;;3.38;;
37593;SDS011;23441;50.856;6.076;2023-06-05T14:40:37;9.00;;;3.47;;
37593;SDS011;23441;50.856;6.076;2023-06-05T14:43:03;11.30;;;3.50;;
37593;SDS011;23441;50.856;6.076;2023-06-05T14:45:29;6.55;;;3.42;;
37593;SDS011;23441;50.856;6.076;2023-06-05T14:47:54;4.55;;;2.63;;
37593;SDS011;23441;50.856;6.076;2023-06-05T14:50:20;7.80;;;3.47;;
37593;SDS011;23441;50.856;6.076;2023-06-05T14:52:46;6.75;;;2.88;;
37593;SDS011;23441;50.856;6.076;2023-06-05T14:55:11;7.25;;;3.30;;
37593;SDS011;23441;50.856;6.076;2023-06-05T14:57:37;8.52;;;3.30;;
37593;SDS011;23441;50.856;6.076;2023-06-05T15:00:04;6.40;;;2.78;;
37593;SDS011;23441;50.856;6.076;2023-06-05T15:02:30;6.97;;;3.42;;
37593;SDS011;23441;50.856;6.076;2023-06-05T15:04:56;6.63;;;3.38;;
37593;SDS011;23441;50.856;6.076;2023-06-05T15:07:25;9.43;;;3.13;;
37593;SDS011;23441;50.856;6.076;2023-06-05T15:10:00;4.35;;;3.10;;
37593;SDS011;23441;50.856;6.076;2023-06-05T15:12:26;5.13;;;3.05;;
37593;SDS011;23441;50.856;6.076;2023-06-05T15:14:51;5.68;;;3.08;;
37593;SDS011;23441;50.856;6.076;2023-06-05T15:17:17;6.53;;;3.03;;
37593;SDS011;23441;50.856;6.076;2023-06-05T15:19:43;6.35;;;3.35;;
37593;SDS011;23441;50.856;6.076;2023-06-05T15:22:10;5.15;;;3.50;;
37593;SDS011;23441;50.856;6.076;2023-06-05T15:24:35;5.82;;;3.30;;
37593;SDS011;23441;50.856;6.076;2023-06-05T15:27:01;6.13;;;3.13;;
37593;SDS011;23441;50.856;6.076;2023-06-05T15:29:28;6.00;;;2.92;;
37593;SDS011;23441;50.856;6.076;2023-06-05T15:31:53;9.35;;;3.33;;
37593;SDS011;23441;50.856;6.076;2023-06-05T15:34:19;6.57;;;3.15;;